Time;durP1;ratioP1;P1;durP2;ratioP2;P2;SDS_P1;SDS_P2;PMS_P1;PMS_P2;Temp;Humidity;BMP_temperature;BMP_pressure;BME280_temperature;BME280_humidity;BME280_pressure;Samples;Min_cycle;Max_cycle;Signal;HPM_P1;HPM_P2
2023/02/10 00:00:24;;;;;;;28.13;21.02;;;7.60;99.90;;;6.57;100.00;103402.28;4162232;28;20033;-78
2023/02/10 00:02:25;;;;;;;29.17;20.58;;;7.60;99.90;;;6.62;100.00;103410.81;4150676;28;20079;-78
2023/02/10 00:04:26;;;;;;;30.52;20.55;;;7.50;99.90;;;6.62;100.00;103417.84;4154264;28;20398;-78
2023/02/10 00:06:27;;;;;;;31.13;21.40;;;7.50;99.90;;;6.58;100.00;103406.63;4169991;28;20037;-78
2023/02/10 00:08:29;;;;;;;33.33;22.67;;;7.50;99.90;;;6.61;100.00;103411.72;4153436;28;20033;-78
2023/02/10 00:10:30;;;;;;;30.77;21.83;;;7.50;99.90;;;6.61;100.00;103409.13;4162691;28;20021;-78
2023/02/10 00:12:31;;;;;;;30.25;22.48;;;7.50;99.90;;;6.61;100.00;103416.97;4202733;28;20484;-78
2023/02/10 00:14:31;;;;;;;32.88;20.95;;;7.50;99.90;;;6.59;100.00;103417.97;4170848;28;20032;-78
2023/02/10 00:16:32;;;;;;;27.73;18.92;;;7.50;99.90;;;6.58;100.00;103417.09;4170948;28;20104;-78
2023/02/10 00:18:34;;;;;;;25.60;17.60;;;7.50;99.90;;;6.52;100.00;103408.63;4153284;28;20640;-78
2023/02/10 00:20:35;;;;;;;29.42;18.55;;;7.60;99.90;;;6.61;100.00;103426.63;4167190;28;20025;-78
2023/02/10 00:22:36;;;;;;;28.45;19.08;;;7.50;99.90;;;6.56;100.00;103426.81;4155895;28;20038;-78
2023/02/10 00:24:37;;;;;;;27.48;19.48;;;7.60;99.90;;;6.59;100.00;103423.22;4153111;28;20463;-78
2023/02/10 00:26:38;;;;;;;26.35;19.08;;;7.50;99.90;;;6.54;100.00;103410.28;4154368;28;20485;-78
2023/02/10 00:28:39;;;;;;;26.80;18.60;;;7.50;99.90;;;6.58;100.00;103422.34;4181050;28;20040;-78
2023/02/10 00:30:40;;;;;;;31.35;20.60;;;7.50;99.90;;;6.57;100.00;103420.63;4169291;28;20477;-78
2023/02/10 00:32:41;;;;;;;26.73;17.73;;;7.50;99.90;;;6.59;100.00;103417.97;4152880;28;20088;-78
2023/02/10 00:34:42;;;;;;;27.52;19.05;;;7.50;99.90;;;6.56;100.00;103429.44;4152993;28;20061;-78
2023/02/10 00:36:43;;;;;;;28.88;18.25;;;7.50;99.90;;;6.50;100.00;103419.22;4154183;28;20041;-78
2023/02/10 00:38:45;;;;;;;33.38;20.95;;;7.50;99.90;;;6.51;100.00;103425.31;4154106;28;20018;-78
2023/02/10 00:40:45;;;;;;;26.85;19.60;;;7.50;99.90;;;6.50;100.00;103424.44;4160824;28;20037;-78
2023/02/10 00:42:46;;;;;;;26.52;18.48;;;7.40;99.90;;;6.48;100.00;103421.03;4152925;28;20049;-78
2023/02/10 00:44:47;;;;;;;23.63;17.35;;;7.40;99.90;;;6.48;100.00;103415.78;4154132;28;20088;-78
2023/02/10 00:46:48;;;;;;;27.70;18.95;;;7.40;99.90;;;6.45;100.00;103415.91;4152885;28;20030;-78
2023/02/10 00:48:50;;;;;;;31.20;21.70;;;7.40;99.90;;;6.47;100.00;103408.84;4152878;28;20033;-78
2023/02/10 00:50:51;;;;;;;29.50;19.35;;;7.40;99.90;;;6.48;100.00;103415.78;4164138;28;20025;-78
2023/02/10 00:52:51;;;;;;;31.13;20.10;;;7.40;99.90;;;6.47;100.00;103419.34;4169190;28;20060;-78
2023/02/10 00:54:52;;;;;;;28.67;20.33;;;7.40;99.90;;;6.42;100.00;103405.53;4185789;28;20116;-78
2023/02/10 00:56:53;;;;;;;27.90;19.55;;;7.40;99.90;;;6.34;100.00;103397.16;4169125;28;20460;-78
2023/02/10 00:58:54;;;;;;;29.65;20.73;;;7.40;99.90;;;6.41;100.00;103406.50;4170337;28;20033;-78
2023/02/10 01:00:55;;;;;;;28.65;18.75;;;7.40;99.90;;;6.41;100.00;103414.34;4161027;28;20100;-78
2023/02/10 01:02:56;;;;;;;27.58;20.15;;;7.30;99.90;;;6.41;100.00;103406.50;4152751;28;20053;-78
2023/02/10 01:04:59;;;;;;;31.50;21.00;;;7.30;99.90;;;6.41;100.00;103408.25;4153669;28;20032;-78
2023/02/10 01:07:00;;;;;;;35.47;22.00;;;7.30;99.90;;;6.36;100.00;103400.56;4152576;28;20038;-78
2023/02/10 01:09:01;;;;;;;32.45;22.35;;;7.30;99.90;;;6.33;100.00;103397.25;4169035;28;20095;-78
2023/02/10 01:11:08;;;;;;;30.67;20.88;;;7.30;99.90;;;6.36;100.00;103403.19;4152572;28;20587;-78
2023/02/10 01:13:11;;;;;;;29.30;20.60;;;7.30;99.90;;;6.37;100.00;103402.28;4156449;28;20025;-78
2023/02/10 01:15:13;;;;;;;35.58;21.83;;;7.30;99.90;;;6.31;100.00;103392.03;4169137;28;20044;-78
2023/02/10 01:17:14;;;;;;;33.72;23.45;;;7.30;99.90;;;6.33;100.00;103397.25;4165465;28;20033;-78
2023/02/10 01:19:16;;;;;;;31.83;22.23;;;7.30;99.90;;;6.29;100.00;103393.03;4155224;28;20022;-78
2023/02/10 01:21:20;;;;;;;32.85;23.50;;;7.30;99.90;;;6.29;100.00;103382.53;4168408;28;20040;-78
2023/02/10 01:23:21;;;;;;;;;;;7.20;99.90;;;6.25;100.00;103394.06;4152849;28;20517;-78
2023/02/10 01:25:21;;;;;;;30.08;20.50;;;7.20;99.90;;;6.24;100.00;103389.75;4153590;28;19933;-78
2023/02/10 01:27:22;;;;;;;30.25;20.77;;;7.20;99.90;;;6.20;100.00;103378.53;4152087;28;20052;-78
2023/02/10 01:29:23;;;;;;;28.55;20.83;;;7.20;99.90;;;6.19;100.00;103387.31;4156328;28;20032;-77
2023/02/10 01:31:24;;;;;;;30.40;20.80;;;7.20;99.90;;;6.21;100.00;103395.97;4165653;28;20040;-78
2023/02/10 01:33:25;;;;;;;26.98;19.83;;;7.20;99.90;;;6.23;100.00;103399.38;4152095;28;20048;-78
2023/02/10 01:35:26;;;;;;;26.30;18.17;;;7.20;99.90;;;6.21;100.00;103401.22;4155790;28;20029;-77
2023/02/10 01:37:27;;;;;;;28.45;19.80;;;7.20;99.90;;;6.23;100.00;103399.38;4152314;28;20406;-78
2023/02/10 01:39:28;;;;;;;27.73;20.02;;;7.20;99.90;;;6.21;100.00;103403.84;4152372;28;20033;-78
2023/02/10 01:41:29;;;;;;;27.45;20.20;;;7.10;99.90;;;6.17;100.00;103397.00;4158126;28;20042;-78
2023/02/10 01:43:31;;;;;;;27.90;19.27;;;7.10;99.90;;;6.13;100.00;103393.66;4152129;28;20120;-78
2023/02/10 01:45:38;;;;;;;28.85;19.77;;;7.10;99.90;;;6.10;100.00;103398.16;4151949;28;20030;-78
2023/02/10 01:47:41;;;;;;;25.45;18.30;;;7.00;99.90;;;6.06;100.00;103394.81;4159985;28;20033;-78
2023/02/10 01:49:48;;;;;;;31.33;20.08;;;7.00;99.90;;;5.99;100.00;103379.41;4168114;28;20512;-77
2023/02/10 01:52:09;;;;;;;31.90;19.70;;;7.00;99.90;;;6.06;100.00;103391.38;4155546;28;20169;-78
2023/02/10 01:54:19;;;;;;;26.50;18.95;;;7.00;99.90;;;6.11;100.00;103394.63;4158823;28;20171;-78
2023/02/10 01:56:20;;;;;;;25.25;18.30;;;7.10;99.90;;;6.14;100.00;103405.00;4152073;28;20034;-77
2023/02/10 01:58:26;;;;;;;29.02;18.58;;;7.10;99.90;;;6.04;100.00;103390.56;4152896;28;20030;-78
2023/02/10 02:00:27;;;;;;;26.58;18.85;;;7.00;99.90;;;6.03;100.00;103392.31;4153998;28;20029;-77
2023/02/10 02:02:28;;;;;;;26.17;19.17;;;7.00;99.90;;;6.03;100.00;103400.19;4152050;28;20194;-78
2023/02/10 02:04:29;;;;;;;27.80;20.15;;;7.00;99.90;;;5.97;100.00;103387.31;4163153;28;20425;-78
2023/02/10 02:06:32;;;;;;;27.65;21.38;;;7.00;99.90;;;5.96;100.00;103400.50;4166817;28;20036;-78
2023/02/10 02:08:33;;;;;;;26.35;20.42;;;6.90;99.90;;;5.89;100.00;103388.53;4168195;28;20033;-78
2023/02/10 02:10:56;;;;;;;29.58;18.92;;;6.90;99.90;;;5.90;100.00;103396.38;4159920;28;20061;-78
2023/02/10 02:13:13;;;;;;;33.97;20.77;;;6.90;99.90;;;5.89;100.00;103404.25;4153018;28;20069;-78
2023/02/10 02:15:45;;;;;;;30.77;20.42;;;6.90;99.90;;;5.89;100.00;103404.25;4151780;28;20026;-77
2023/02/10 02:18:20;;;;;;;31.70;20.17;;;6.80;99.90;;;5.87;100.00;103404.34;4151914;28;20561;-78
2023/02/10 02:21:00;;;;;;;26.88;19.27;;;6.90;99.90;;;5.94;100.00;103418.06;4159392;28;20065;-78
2023/02/10 02:23:21;;;;;;;30.90;20.73;;;6.90;99.90;;;5.88;100.00;103410.44;4144373;28;20029;-76
2023/02/10 02:25:22;;;;;;;33.40;21.30;;;6.80;99.90;;;5.83;100.00;103399.22;4163432;28;20084;-77
2023/02/10 02:28:15;;;;;;;27.63;20.95;;;6.80;99.90;;;5.80;100.00;103405.44;4167832;28;20060;-78
2023/02/10 02:30:52;;;;;;;35.28;22.00;;;6.80;99.90;;;5.75;100.00;103396.94;4162862;28;20037;-77
2023/02/10 02:33:13;;;;;;;33.28;21.95;;;6.70;99.90;;;5.74;100.00;103405.69;4161271;28;20033;-78
2023/02/10 02:35:22;;;;;;;31.10;21.05;;;6.70;99.90;;;5.67;100.00;103385.91;4135702;28;20035;-78
2023/02/10 02:37:29;;;;;;;36.25;23.45;;;6.70;99.90;;;5.64;100.00;103386.03;4151540;28;20025;-77
2023/02/10 02:39:31;;;;;;;32.28;22.77;;;6.70;99.90;;;5.61;100.00;103391.38;4161983;28;20041;-78
2023/02/10 02:41:34;;;;;;;30.63;20.85;;;6.60;99.90;;;5.66;100.00;103397.28;4151391;28;20030;-78
2023/02/10 02:43:36;;;;;;;31.05;21.02;;;6.60;99.90;;;5.54;100.00;103369.81;4151207;28;20065;-77
2023/02/10 02:45:54;;;;;;;27.02;20.70;;;6.60;99.90;;;5.62;100.00;103390.44;4155492;28;20021;-78
2023/02/10 02:48:18;;;;;;;32.55;20.75;;;6.60;99.90;;;5.64;100.00;103387.78;4151434;28;20030;-78
2023/02/10 02:50:46;;;;;;;29.20;19.35;;;6.60;99.90;;;5.63;100.00;103391.31;4150960;28;20065;-78
2023/02/10 02:53:04;;;;;;;28.13;19.33;;;6.60;99.90;;;5.57;100.00;103379.31;4151270;28;20063;-78
2023/02/10 02:55:44;;;;;;;30.02;20.25;;;6.60;99.90;;;5.62;100.00;103373.88;4152069;28;20065;-78
2023/02/10 02:57:50;;;;;;;33.33;20.63;;;6.60;99.90;;;5.53;100.00;103362.00;4152381;28;20102;-78
2023/02/10 03:00:05;;;;;;;31.63;21.00;;;6.60;99.90;;;5.64;100.00;103378.19;4152513;28;20044;-78
2023/02/10 03:02:13;;;;;;;29.58;19.23;;;6.60;99.90;;;5.62;100.00;103373.88;4151334;28;20034;-78
2023/02/10 03:04:17;;;;;;;26.33;17.90;;;6.60;99.90;;;5.67;100.00;103375.44;4151520;28;20030;-78
2023/02/10 03:06:18;;;;;;;30.48;20.27;;;6.60;99.90;;;5.66;100.00;103367.63;4150939;28;20026;-77
2023/02/10 03:08:18;;;;;;;27.05;19.45;;;6.60;99.90;;;5.70;100.00;103377.09;4152603;28;20065;-78
2023/02/10 03:10:21;;;;;;;31.02;20.42;;;6.60;99.90;;;5.70;100.00;103377.94;4150930;28;20029;-78
2023/02/10 03:12:22;;;;;;;27.67;19.38;;;6.60;99.90;;;5.67;100.00;103378.06;4167334;28;20432;-77
2023/02/10 03:14:23;;;;;;;32.55;20.40;;;6.60;99.90;;;5.71;100.00;103391.84;4163739;28;20029;-78
2023/02/10 03:16:24;;;;;;;28.63;19.55;;;6.70;99.90;;;5.65;100.00;103379.00;4166779;28;20048;-78
2023/02/10 03:18:25;;;;;;;29.80;19.67;;;6.70;99.90;;;5.67;100.00;103378.06;4150868;28;20026;-78
2023/02/10 03:20:26;;;;;;;28.48;20.17;;;6.70;99.90;;;5.70;100.00;103377.09;4166759;28;20025;-77
2023/02/10 03:22:27;;;;;;;31.63;21.42;;;6.70;99.90;;;5.66;100.00;103365.00;4155997;28;20076;-77
2023/02/10 03:24:28;;;;;;;29.15;20.90;;;6.70;99.90;;;5.74;100.00;103374.25;4150601;28;20585;-78
2023/02/10 03:26:29;;;;;;;28.83;20.05;;;6.70;99.90;;;5.75;100.00;103367.25;4151075;28;20093;-78
2023/02/10 03:28:30;;;;;;;29.45;19.75;;;6.80;99.90;;;5.86;100.00;103383.44;4151025;28;20038;-78
2023/02/10 03:30:32;;;;;;;28.13;19.65;;;6.80;99.90;;;5.81;100.00;103378.34;4155057;28;20049;-78
2023/02/10 03:32:33;;;;;;;32.55;20.35;;;6.80;99.90;;;5.85;100.00;103376.47;4160943;28;20030;-78
2023/02/10 03:34:34;;;;;;;31.33;21.95;;;6.80;99.90;;;5.87;100.00;103387.78;4156503;28;20117;-78
2023/02/10 03:36:35;;;;;;;31.63;20.90;;;6.80;99.90;;;5.83;100.00;103373.03;4160516;28;20564;-78
2023/02/10 03:38:36;;;;;;;27.65;19.08;;;6.80;99.90;;;5.85;100.00;103382.59;4169848;28;20036;-78
2023/02/10 03:40:37;;;;;;;30.25;20.45;;;6.80;99.90;;;5.72;100.00;103354.28;4170565;28;20026;-78
2023/02/10 03:42:38;;;;;;;26.67;17.58;;;6.80;99.90;;;5.84;100.00;103385.25;4153851;28;20026;-78
2023/02/10 03:44:39;;;;;;;25.48;17.77;;;6.80;99.90;;;5.81;100.00;103373.13;4154067;28;20092;-78
2023/02/10 03:46:40;;;;;;;28.33;18.73;;;6.80;99.90;;;5.84;100.00;103370.38;4168332;28;20569;-78
2023/02/10 03:48:41;;;;;;;27.08;19.02;;;6.80;99.90;;;5.81;100.00;103369.66;4170332;28;20373;-78
2023/02/10 03:50:42;;;;;;;26.15;18.13;;;6.80;99.90;;;5.83;100.00;103365.19;4171204;28;20087;-78
2023/02/10 03:52:43;;;;;;;30.15;18.83;;;6.80;99.90;;;5.85;100.00;103372.13;4170189;28;20037;-78
2023/02/10 03:54:44;;;;;;;26.08;18.60;;;6.80;99.90;;;5.81;100.00;103364.41;4170142;28;20025;-78
2023/02/10 03:56:45;;;;;;;26.85;18.48;;;6.80;99.90;;;5.86;100.00;103373.81;4153596;28;20034;-78
2023/02/10 03:58:46;;;;;;;26.52;17.92;;;6.80;99.90;;;5.90;100.00;103378.03;4159987;28;20091;-78
2023/02/10 04:00:48;;;;;;;25.67;18.27;;;6.80;99.90;;;5.85;100.00;103374.75;4153704;28;20026;-78
2023/02/10 04:02:49;;;;;;;23.50;17.48;;;6.90;99.90;;;5.86;100.00;103378.19;4166909;28;20018;-78
2023/02/10 04:04:50;;;;;;;27.55;18.35;;;6.80;99.90;;;5.87;100.00;103374.66;4169691;28;20105;-78
2023/02/10 04:06:50;;;;;;;28.52;18.98;;;6.80;99.90;;;5.80;100.00;103367.94;4171355;28;20052;-78
2023/02/10 04:08:51;;;;;;;24.85;18.42;;;6.80;99.90;;;5.78;100.00;103357.53;4169869;28;20037;-78
2023/02/10 04:10:52;;;;;;;26.58;17.70;;;6.80;99.90;;;5.85;100.00;103376.47;4169845;28;20061;-78
2023/02/10 04:12:53;;;;;;;28.02;18.90;;;6.80;99.90;;;5.85;100.00;103373.84;4169915;28;20064;-78
2023/02/10 04:14:54;;;;;;;29.48;17.33;;;6.80;99.90;;;5.88;100.00;103381.63;4164045;28;20498;-78
2023/02/10 04:16:55;;;;;;;29.90;19.30;;;6.80;99.90;;;5.83;100.00;103378.28;4154516;28;20056;-78
2023/02/10 04:18:56;;;;;;;28.48;19.27;;;6.80;99.90;;;5.81;100.00;103380.13;4157323;28;20028;-78
2023/02/10 04:20:57;;;;;;;27.38;19.02;;;6.80;99.90;;;5.74;100.00;103376.88;4168921;28;20029;-78
2023/02/10 04:22:58;;;;;;;26.98;18.92;;;6.80;99.90;;;5.75;100.00;103396.94;4163885;28;20026;-78
2023/02/10 04:24:59;;;;;;;34.47;20.05;;;6.80;99.90;;;5.70;100.00;103391.03;4178456;28;20053;-78
2023/02/10 04:27:00;;;;;;;29.10;20.13;;;6.70;99.90;;;5.61;100.00;103364.34;4165369;28;20536;-78
2023/02/10 04:29:01;;;;;;;25.95;18.08;;;6.70;99.90;;;5.63;100.00;103370.38;4155184;28;20560;-78
2023/02/10 04:31:02;;;;;;;34.90;25.20;;;6.70;99.90;;;5.70;100.00;103384.94;4154430;28;20026;-78
2023/02/10 04:33:03;;;;;;;34.90;24.83;;;6.70;99.90;;;5.69;100.00;103380.59;4179082;28;20388;-78
2023/02/10 04:35:04;;;;;;;36.90;23.77;;;6.70;99.90;;;5.70;100.00;103384.94;4153051;28;20037;-78
2023/02/10 04:37:05;;;;;;;35.05;23.08;;;6.70;99.90;;;5.77;100.00;103397.72;4136905;28;20049;-78
2023/02/10 04:39:06;;;;;;;27.50;20.50;;;6.70;99.90;;;5.76;100.00;103409.13;4157349;28;20029;-78
2023/02/10 04:41:07;;;;;;;36.05;23.90;;;6.70;99.90;;;5.75;100.00;103409.16;4169549;28;20033;-78
2023/02/10 04:43:09;;;;;;;32.65;20.55;;;6.70;99.90;;;5.67;100.00;103406.00;4154167;28;20366;-78
2023/02/10 04:45:10;;;;;;;29.33;18.42;;;6.70;99.90;;;5.68;100.00;103411.16;4153050;28;20022;-78
2023/02/10 04:47:11;;;;;;;30.55;20.75;;;6.70;99.90;;;5.63;100.00;103401.78;4152893;28;20034;-78
2023/02/10 04:49:12;;;;;;;29.58;19.38;;;6.60;99.90;;;5.64;100.00;103409.59;4152654;28;20457;-78
2023/02/10 04:51:13;;;;;;;33.72;21.50;;;6.60;99.90;;;5.65;100.00;103413.91;4147447;28;20029;-78
2023/02/10 04:53:14;;;;;;;27.73;18.95;;;6.60;99.90;;;5.65;100.00;103413.91;4155087;28;20034;-78
2023/02/10 04:55:15;;;;;;;25.60;18.67;;;6.60;99.90;;;5.63;100.00;103412.25;4169385;28;20033;-78
2023/02/10 04:57:16;;;;;;;24.17;19.05;;;6.60;99.90;;;5.62;100.00;103413.16;4152669;28;20225;-79
2023/02/10 04:59:17;;;;;;;26.17;19.55;;;6.60;99.90;;;5.54;100.00;103393.38;4154240;28;20034;-78
2023/02/10 05:01:18;;;;;;;29.73;21.92;;;6.60;99.90;;;5.56;100.00;103396.78;4152877;28;20034;-78
2023/02/10 05:03:19;;;;;;;34.05;20.30;;;6.60;99.90;;;5.62;100.00;103405.31;4152772;28;20030;-78
2023/02/10 05:05:20;;;;;;;28.58;19.95;;;6.60;99.90;;;5.65;100.00;103415.66;4152893;28;20026;-78
2023/02/10 05:07:21;;;;;;;26.63;19.63;;;6.60;99.90;;;5.70;100.00;103424.22;4162303;28;20021;-78
2023/02/10 05:09:22;;;;;;;29.08;19.00;;;6.60;99.90;;;5.67;100.00;103416.47;4165678;28;20088;-78
2023/02/10 05:11:23;;;;;;;26.65;17.85;;;6.60;99.90;;;5.64;100.00;103416.59;4152716;28;20049;-78
2023/02/10 05:13:24;;;;;;;27.52;20.60;;;6.70;99.90;;;5.67;100.00;103413.84;4153773;28;20033;-78
2023/02/10 05:15:24;;;;;;;30.92;21.23;;;6.60;99.90;;;5.69;100.00;103427.75;4152564;28;20488;-78
2023/02/10 05:17:25;;;;;;;32.22;21.88;;;6.70;99.90;;;5.69;100.00;103425.13;4152317;28;20065;-78
2023/02/10 05:19:26;;;;;;;29.25;20.02;;;6.60;99.90;;;5.59;100.00;103420.22;4153622;28;20536;-78
2023/02/10 05:21:27;;;;;;;33.80;22.58;;;6.60;99.90;;;5.67;100.00;103435.66;4152844;28;20459;-78
2023/02/10 05:23:29;;;;;;;35.05;22.95;;;6.60;99.90;;;5.64;100.00;103427.94;4168833;28;20041;-78
2023/02/10 05:25:30;;;;;;;32.13;23.13;;;6.60;99.90;;;5.62;100.00;103415.78;4165479;28;20025;-78
2023/02/10 05:27:31;;;;;;;33.85;24.10;;;6.60;99.90;;;5.67;100.00;103425.19;4168216;28;20048;-78
2023/02/10 05:29:32;;;;;;;33.97;24.35;;;6.70;99.90;;;5.67;100.00;103430.44;4152261;28;20037;-78
2023/02/10 05:31:33;;;;;;;38.05;24.67;;;6.70;99.90;;;5.68;100.00;103432.13;4177422;28;20036;-78
2023/02/10 05:33:34;;;;;;;32.72;23.63;;;6.60;99.90;;;5.67;100.00;103434.81;4152326;28;20402;-78
2023/02/10 05:35:35;;;;;;;33.65;22.98;;;6.60;99.90;;;5.67;100.00;103437.44;4167579;28;20030;-78
2023/02/10 05:37:36;;;;;;;32.20;23.25;;;6.60;99.90;;;5.66;100.00;103436.56;4153327;28;20428;-78
2023/02/10 05:39:37;;;;;;;34.65;21.58;;;6.60;99.90;;;5.68;100.00;103441.72;4152138;28;20105;-78
2023/02/10 05:41:38;;;;;;;38.25;22.98;;;6.60;99.90;;;5.66;100.00;103449.66;4164198;28;20037;-78
2023/02/10 05:43:40;;;;;;;29.35;20.05;;;6.60;99.90;;;5.68;100.00;103455.69;4169717;28;20104;-78
2023/02/10 05:45:41;;;;;;;28.55;21.15;;;6.60;99.90;;;5.49;100.00;103426.75;4152579;28;20029;-78
2023/02/10 05:47:42;;;;;;;26.00;18.60;;;6.60;99.90;;;5.61;100.00;103437.66;4152255;28;20465;-78
2023/02/10 05:49:43;;;;;;;28.17;22.25;;;6.60;99.90;;;5.61;100.00;103446.38;4151890;28;20037;-78
2023/02/10 05:51:45;;;;;;;38.15;24.92;;;6.60;99.90;;;5.65;100.00;103449.69;4152063;28;20081;-78
2023/02/10 05:53:46;;;;;;;37.58;25.67;;;6.60;99.90;;;5.57;100.00;103440.41;4153200;28;20054;-78
2023/02/10 05:55:47;;;;;;;33.20;24.35;;;6.60;99.90;;;5.66;100.00;103454.91;4153050;28;20088;-78
2023/02/10 05:57:50;;;;;;;39.20;26.65;;;6.60;99.90;;;5.62;100.00;103450.69;4151639;28;20077;-78
2023/02/10 05:59:51;;;;;;;39.50;26.65;;;6.60;99.90;;;5.67;100.00;103454.00;4166737;28;20534;-78
2023/02/10 06:01:52;;;;;;;41.15;26.77;;;6.60;99.90;;;5.65;100.00;103454.94;4152623;28;20030;-78
2023/02/10 06:03:53;;;;;;;42.08;29.33;;;6.60;99.90;;;5.63;100.00;103443.69;4153172;28;20064;-78
2023/02/10 06:05:53;;;;;;;37.92;26.50;;;6.60;99.90;;;5.61;100.00;103446.38;4152899;28;20026;-78
2023/02/10 06:07:55;;;;;;;36.45;24.67;;;6.60;99.90;;;5.69;100.00;103464.41;4152959;28;20026;-78
2023/02/10 06:09:56;;;;;;;32.58;22.67;;;6.60;99.90;;;5.68;100.00;103462.69;4151790;28;20022;-78
2023/02/10 06:11:57;;;;;;;33.00;23.17;;;6.60;99.90;;;5.57;100.00;103442.16;4151570;28;20026;-78
2023/02/10 06:13:58;;;;;;;38.00;26.35;;;6.60;99.90;;;5.58;100.00;103452.56;4162306;28;20504;-78
2023/02/10 06:16:01;;;;;;;40.72;27.58;;;6.60;99.90;;;5.64;100.00;103469.81;4165364;28;20025;-78
2023/02/10 06:18:02;;;;;;;40.10;28.35;;;6.60;99.90;;;5.64;100.00;103471.59;4169413;28;20033;-78
2023/02/10 06:20:03;;;;;;;46.95;32.00;;;6.60;99.90;;;5.58;100.00;103454.34;4167723;28;20041;-78
2023/02/10 06:22:05;;;;;;;38.05;26.92;;;6.60;99.90;;;5.63;100.00;103462.88;4151072;28;20041;-78
2023/02/10 06:24:06;;;;;;;39.75;26.85;;;6.60;99.90;;;5.58;100.00;103464.81;4164843;28;20076;-78
2023/02/10 06:26:07;;;;;;;42.05;26.92;;;6.60;99.90;;;5.61;100.00;103471.69;4176792;28;20523;-78
2023/02/10 06:28:08;;;;;;;44.20;30.77;;;6.60;99.90;;;5.62;100.00;103474.25;4167578;28;20113;-78
2023/02/10 06:30:10;;;;;;;41.72;29.30;;;6.60;99.90;;;5.62;100.00;103471.63;4168911;28;20055;-78
2023/02/10 06:32:10;;;;;;;46.08;31.80;;;6.60;99.90;;;5.61;100.00;103476.94;4168219;28;20037;-78
2023/02/10 06:34:12;;;;;;;46.55;31.30;;;6.60;99.90;;;5.60;100.00;103481.31;4152368;28;20028;-78
2023/02/10 06:36:13;;;;;;;44.38;32.55;;;6.60;99.90;;;5.59;100.00;103475.22;4151312;28;20116;-78
2023/02/10 06:38:15;;;;;;;48.00;34.88;;;6.50;99.90;;;5.57;100.00;103473.56;4145370;28;20109;-78
2023/02/10 06:40:16;;;;;;;55.83;36.45;;;6.60;99.90;;;5.62;100.00;103478.63;4148203;28;20112;-78
2023/02/10 06:42:17;;;;;;;53.00;35.55;;;6.50;99.90;;;5.60;100.00;103476.06;4151554;28;20053;-78
2023/02/10 06:44:18;;;;;;;50.40;34.17;;;6.50;99.90;;;5.55;100.00;103468.38;4144186;28;20075;-79
2023/02/10 06:46:19;;;;;;;48.88;34.28;;;6.50;99.90;;;5.56;100.00;103480.56;4162414;28;20449;-78
2023/02/10 06:48:20;;;;;;;53.60;35.53;;;6.50;99.90;;;5.59;100.00;103485.69;4167489;28;20079;-77
2023/02/10 06:50:21;;;;;;;48.78;33.42;;;6.60;99.90;;;5.59;100.00;103490.94;4167400;28;20064;-78
2023/02/10 06:52:24;;;;;;;42.13;32.42;;;6.60;99.90;;;5.55;100.00;103484.09;4151147;28;20532;-78
2023/02/10 06:54:25;;;;;;;46.65;33.20;;;6.50;99.90;;;5.52;100.00;103484.22;4167352;28;20040;-78
2023/02/10 06:56:26;;;;;;;53.55;34.85;;;6.50;99.90;;;5.55;100.00;103499.78;4163918;28;20034;-78
2023/02/10 06:58:27;;;;;;;50.25;35.72;;;6.50;99.90;;;5.49;100.00;103479.09;4151373;28;20172;-78
2023/02/10 07:00:29;;;;;;;52.45;34.30;;;6.60;99.90;;;5.49;100.00;103479.09;4157433;28;20037;-78
2023/02/10 07:02:29;;;;;;;49.88;35.15;;;6.50;99.90;;;5.50;100.00;103482.56;4151027;28;20026;-78
2023/02/10 07:04:32;;;;;;;49.97;33.17;;;6.50;99.90;;;5.50;100.00;103483.41;4163622;28;20021;-78
2023/02/10 07:06:33;;;;;;;52.08;36.83;;;6.50;99.90;;;5.58;100.00;103504.09;4151064;28;20460;-78
2023/02/10 07:08:34;;;;;;;50.00;34.15;;;6.50;99.90;;;5.47;100.00;103474.81;4158754;28;20038;-78
2023/02/10 07:10:35;;;;;;;47.75;33.67;;;6.50;99.90;;;5.57;100.00;103498.00;4168609;28;20512;-78
2023/02/10 07:12:36;;;;;;;48.95;34.38;;;6.50;99.90;;;5.59;100.00;103500.53;4167309;28;20061;-78
2023/02/10 07:14:38;;;;;;;54.58;36.45;;;6.60;99.90;;;5.53;100.00;103492.91;4184416;28;20435;-78
2023/02/10 07:16:39;;;;;;;51.72;35.05;;;6.50;99.90;;;5.60;100.00;103502.25;4155475;28;20022;-78
2023/02/10 07:18:41;;;;;;;49.60;33.35;;;6.60;99.90;;;5.61;100.00;103497.88;4154326;28;20053;-78
2023/02/10 07:20:42;;;;;;;54.33;37.10;;;6.60;99.90;;;5.53;100.00;103488.53;4154020;28;20030;-78
2023/02/10 07:22:43;;;;;;;48.50;35.97;;;6.60;99.90;;;5.63;100.00;103503.91;4154178;28;20029;-78
2023/02/10 07:24:43;;;;;;;54.80;35.53;;;6.60;99.90;;;5.59;100.00;103492.69;4154533;28;20053;-78
2023/02/10 07:26:45;;;;;;;59.80;37.97;;;6.60;99.90;;;5.53;100.00;103490.28;4170790;28;20060;-78
2023/02/10 07:28:46;;;;;;;49.58;35.53;;;6.60;99.90;;;5.63;100.00;103504.75;4166530;28;20059;-78
2023/02/10 07:30:47;;;;;;;52.53;33.60;;;6.60;99.90;;;5.67;100.00;103518.59;4170358;28;20029;-78
2023/02/10 07:32:48;;;;;;;49.33;35.47;;;6.60;99.90;;;5.67;100.00;103514.22;4181472;28;20117;-78
2023/02/10 07:34:49;;;;;;;52.60;34.60;;;6.60;99.90;;;5.68;100.00;103525.53;4162142;28;20018;-78
2023/02/10 07:36:53;;;;;;;47.22;34.15;;;6.60;99.90;;;5.66;100.00;103524.75;4159563;28;20451;-78
2023/02/10 07:38:54;;;;;;;;;;;6.60;99.90;;;5.64;100.00;103527.44;4154401;28;20021;-78
2023/02/10 07:40:55;;;;;;;46.97;30.35;;;6.60;99.90;;;5.67;100.00;103523.84;4170374;28;19979;-78
2023/02/10 07:42:56;;;;;;;50.83;34.20;;;6.60;99.90;;;5.66;100.00;103524.75;4154167;28;20033;-78
2023/02/10 07:44:58;;;;;;;51.25;35.08;;;6.70;99.90;;;5.67;100.00;103521.22;4165735;28;20437;-78
2023/02/10 07:46:59;;;;;;;51.55;33.90;;;6.70;99.90;;;5.72;100.00;103533.22;4170080;28;20067;-78
2023/02/10 07:49:00;;;;;;;50.90;35.08;;;6.60;99.90;;;5.74;100.00;103530.53;4171645;28;20030;-77
2023/02/10 07:51:01;;;;;;;56.97;40.03;;;6.70;99.90;;;5.72;100.00;103527.13;4170242;28;20037;-77
2023/02/10 07:53:02;;;;;;;52.72;36.65;;;6.70;99.90;;;5.71;100.00;103525.41;4170242;28;20028;-77
2023/02/10 07:55:04;;;;;;;55.95;37.97;;;6.70;99.90;;;5.81;100.00;103532.03;4170004;28;20044;-76
2023/02/10 07:57:05;;;;;;;58.00;39.15;;;6.70;99.90;;;5.77;100.00;103530.44;4171271;28;20028;-77
2023/02/10 07:59:06;;;;;;;58.80;37.47;;;6.70;99.90;;;5.79;100.00;103524.25;4153596;28;20049;-77
2023/02/10 08:01:10;;;;;;;56.72;37.08;;;6.70;99.90;;;5.81;100.00;103526.78;4169930;28;20127;-76
2023/02/10 08:03:14;;;;;;;55.35;35.25;;;6.70;99.90;;;5.81;100.00;103519.78;4169749;28;20029;-77
2023/02/10 08:05:16;;;;;;;51.63;34.35;;;6.80;99.90;;;5.84;100.00;103539.78;4153615;28;20053;-77
2023/02/10 08:07:16;;;;;;;49.95;35.92;;;6.80;99.90;;;5.84;100.00;103540.63;4169973;28;20532;-77
2023/02/10 08:09:17;;;;;;;50.75;34.17;;;6.80;99.90;;;5.88;100.00;103544.03;4171050;28;20030;-77
2023/02/10 08:11:18;;;;;;;47.95;34.03;;;6.80;99.90;;;5.94;100.00;103549.88;4154054;28;20444;-77
2023/02/10 08:13:19;;;;;;;51.47;34.78;;;6.90;99.90;;;5.97;100.00;103554.16;4154890;28;20021;-77
2023/02/10 08:15:22;;;;;;;53.63;35.13;;;6.90;99.90;;;6.06;100.00;103553.81;4154619;28;20061;-76
2023/02/10 08:17:23;;;;;;;77.50;47.88;;;6.90;99.90;;;6.05;100.00;103549.47;4153250;28;20026;-77
2023/02/10 08:19:24;;;;;;;89.50;52.70;;;7.00;99.90;;;5.99;100.00;103537.47;4162773;28;20030;-77
2023/02/10 08:21:26;;;;;;;75.50;45.17;;;7.00;99.90;;;6.04;100.00;103539.91;4153452;28;20071;-77
2023/02/10 08:23:27;;;;;;;63.17;40.85;;;7.00;99.90;;;6.08;100.00;103544.13;4136688;28;20046;-77
2023/02/10 08:25:28;;;;;;;56.45;37.80;;;7.10;99.90;;;6.22;100.00;103554.94;4148864;28;20022;-77
2023/02/10 08:27:29;;;;;;;59.20;37.83;;;7.10;99.90;;;6.23;100.00;103545.31;4155939;28;20044;-77